Terminal Aerodrome Forecast
Issued by NWS

Home | Current Version | Previous Version | Text Only | Print | Product List | Glossary Off
Versions: 1 2 3 4 5 6 7 8 9 10 11 12 13

000
FTUS42 KMHX 280500
TAFPGV
TAF
KPGV 280533Z 2806/2906 22007KT P6SM SCT040 BKN150
     FM281400 27011G17KT P6SM SCT040
     FM290000 35005KT P6SM SCT040
      AMD LTD TO CLD VIS AND WIND=

USA.gov is the U.S. government's official web portal to all federal, state and local government web resources and services.